Current | Forecast
Updated: 11:00 PM MSK on March 30, 2017
Observed at Arhangel'sk, Russia
Temperature 18°F
Windchill 5°F
Humidity 73%
Dew Point 10°F
Wind West at 11 mph
Pressure 29.92 in (Steady)
Conditions Partly Cloudy
Visibility 6.2 miles
UV 0 out of 16
Clouds (FEW) : 2000 ft
Yesterday's Maximum 27°F
Yesterday's Minimum 19°F approx.
Yesterday's Heating Degree Days 42 approx.
Sunrise5:42 AM MSK
Sunset7:03 PM MSK
Moon Rise6:51 AM MSK
Moon Set10:35 PM MSK
Moon PhaseMoon Phase
Waxing Crescent
Raw METARMETAR ULAA 302000Z 28005MPS 9999 FEW020CB M08/M12 Q1013 R26/910350 NOSIG RMK QFE758/1011


Monday
. High: 57° F.
Tuesday
. High: 44° F.
Wednesday
. High: 46° F.
Thursday
. High: 51° F.
Friday
. High: 60° F.
Saturday
. High: 64° F.
Sunday
. High: 57° F.
Monday
. High: 53° F.

Units: English | Metric

Find the Weather for any City, State or Zipcode, or Country:

U.S. State List | Severe Weather | Tropical Storms | Ski Conditions
United States | Canada | Central America | South America | Asia | Europe | Australia | Africa | Islands

Weather Underground

© Copyright 2017
The Weather Company, LLC